TRA83 EHAM-EHRD
Flight info
| Callsign | TRA83 |
|---|---|
| Flight time | 0h 22m |
| Altitude | 4000 |
| Route | LOPIK DCT INKET |
| Aircraft | A320/M-SDE3FGHIRWY/LB1 |
Departure
| Time | 2026-05-05 20:51 |
|---|---|
| Airport | Amsterdam Airport Schiphol (EHAM) |
Arrival
| Time | 2026-05-05 21:13 |
|---|---|
| Airport | Rotterdam The Hague Airport (EHRD) |
| Time | Latitude | Longitude | Altitude | Speed | Heading |
|---|---|---|---|---|---|
| 2026-05-05 20:43 | 52.30668 | 4.76739 | -1 ft | 0 kts | 148° |
| 2026-05-05 20:44 | 52.30667 | 4.76740 | -1 ft | 1 kts | 148° |
| 2026-05-05 20:44 | 52.30645 | 4.76765 | -1 ft | 7 kts | 142° |
| 2026-05-05 20:45 | 52.30597 | 4.76847 | -1 ft | 2 kts | 127° |
| 2026-05-05 20:45 | 52.30584 | 4.76878 | -1 ft | 5 kts | 122° |
| 2026-05-05 20:45 | 52.30554 | 4.76921 | -1 ft | 7 kts | 148° |
| 2026-05-05 20:46 | 52.30507 | 4.76969 | -1 ft | 9 kts | 148° |
| 2026-05-05 20:46 | 52.30448 | 4.77029 | -1 ft | 10 kts | 147° |
| 2026-05-05 20:46 | 52.30434 | 4.77141 | -1 ft | 12 kts | 66° |
| 2026-05-05 20:46 | 52.30486 | 4.77270 | -1 ft | 15 kts | 57° |
| 2026-05-05 20:47 | 52.30544 | 4.77428 | -1 ft | 17 kts | 59° |
| 2026-05-05 20:47 | 52.30544 | 4.77560 | -1 ft | 14 kts | 141° |
| 2026-05-05 20:47 | 52.30473 | 4.77623 | -1 ft | 9 kts | 154° |
| 2026-05-05 20:47 | 52.30467 | 4.77627 | -1 ft | 0 kts | 154° |
| 2026-05-05 20:48 | 52.30467 | 4.77628 | -1 ft | 0 kts | 154° |
| 2026-05-05 20:49 | 52.30466 | 4.77628 | -1 ft | 1 kts | 154° |
| 2026-05-05 20:49 | 52.30457 | 4.77636 | -1 ft | 3 kts | 153° |
| 2026-05-05 20:49 | 52.30427 | 4.77645 | -1 ft | 6 kts | 192° |
| 2026-05-05 20:49 | 52.30393 | 4.77580 | -2 ft | 10 kts | 237° |
| 2026-05-05 20:50 | 52.30361 | 4.77499 | -2 ft | 13 kts | 238° |
| 2026-05-05 20:50 | 52.30232 | 4.77160 | -3 ft | 70 kts | 238° |
| 2026-05-05 20:50 | 52.29857 | 4.76188 | -3 ft | 130 kts | 237° |
| 2026-05-05 20:50 | 52.29286 | 4.74704 | 6 ft | 175 kts | 237° |
| 2026-05-05 20:51 | 52.28587 | 4.73028 | 473 ft | 185 kts | 239° |
| 2026-05-05 20:51 | 52.27821 | 4.71151 | 810 ft | 211 kts | 239° |
| 2026-05-05 20:51 | 52.26996 | 4.69028 | 1199 ft | 234 kts | 239° |
| 2026-05-05 20:51 | 52.26072 | 4.66673 | 1617 ft | 258 kts | 239° |
| 2026-05-05 20:52 | 52.25075 | 4.64130 | 2300 ft | 272 kts | 239° |
| 2026-05-05 20:52 | 52.24046 | 4.61500 | 3256 ft | 277 kts | 239° |
| 2026-05-05 20:52 | 52.22991 | 4.58818 | 3790 ft | 282 kts | 239° |
| 2026-05-05 20:52 | 52.21928 | 4.56130 | 3956 ft | 281 kts | 239° |
| 2026-05-05 20:53 | 52.20854 | 4.53475 | 4009 ft | 282 kts | 234° |
| 2026-05-05 20:53 | 52.19400 | 4.51347 | 4015 ft | 282 kts | 209° |
| 2026-05-05 20:53 | 52.17568 | 4.50343 | 4011 ft | 277 kts | 184° |
| 2026-05-05 20:53 | 52.15685 | 4.50594 | 4010 ft | 271 kts | 159° |
| 2026-05-05 20:54 | 52.14044 | 4.51995 | 4009 ft | 266 kts | 136° |
| 2026-05-05 20:54 | 52.12880 | 4.54275 | 4004 ft | 261 kts | 116° |
| 2026-05-05 20:54 | 52.12028 | 4.56865 | 4006 ft | 260 kts | 115° |
| 2026-05-05 20:54 | 52.11172 | 4.59450 | 4005 ft | 259 kts | 115° |
| 2026-05-05 20:55 | 52.10311 | 4.62033 | 4005 ft | 260 kts | 115° |
| 2026-05-05 20:55 | 52.09448 | 4.64611 | 4001 ft | 261 kts | 116° |
| 2026-05-05 20:55 | 52.08578 | 4.67205 | 4000 ft | 262 kts | 115° |
| 2026-05-05 20:55 | 52.07704 | 4.69802 | 4020 ft | 262 kts | 115° |
| 2026-05-05 20:56 | 52.06829 | 4.72395 | 4024 ft | 262 kts | 115° |
| 2026-05-05 20:56 | 52.05956 | 4.74985 | 4026 ft | 262 kts | 115° |
| 2026-05-05 20:56 | 52.05080 | 4.77582 | 4025 ft | 262 kts | 115° |
| 2026-05-05 20:56 | 52.04202 | 4.80180 | 4025 ft | 262 kts | 116° |
| 2026-05-05 20:57 | 52.03330 | 4.82755 | 4021 ft | 262 kts | 116° |
| 2026-05-05 20:57 | 52.02463 | 4.85318 | 4014 ft | 261 kts | 115° |
| 2026-05-05 20:57 | 52.01593 | 4.87880 | 4015 ft | 261 kts | 115° |
| 2026-05-05 20:57 | 52.00707 | 4.90489 | 4017 ft | 262 kts | 115° |
| 2026-05-05 20:58 | 51.99828 | 4.93079 | 4016 ft | 262 kts | 115° |
| 2026-05-05 20:58 | 51.98952 | 4.95662 | 4149 ft | 264 kts | 116° |
| 2026-05-05 20:58 | 51.98055 | 4.98312 | 4790 ft | 271 kts | 116° |
| 2026-05-05 20:58 | 51.97153 | 5.00969 | 4887 ft | 268 kts | 116° |
| 2026-05-05 20:59 | 51.95999 | 5.03347 | 4903 ft | 272 kts | 137° |
| 2026-05-05 20:59 | 51.94335 | 5.04793 | 4901 ft | 275 kts | 163° |
| 2026-05-05 20:59 | 51.92429 | 5.04974 | 4908 ft | 280 kts | 189° |
| 2026-05-05 20:59 | 51.90642 | 5.03779 | 4908 ft | 279 kts | 217° |
| 2026-05-05 21:00 | 51.89362 | 5.01459 | 4900 ft | 278 kts | 242° |
| 2026-05-05 21:00 | 51.88460 | 4.98682 | 4901 ft | 278 kts | 244° |
| 2026-05-05 21:00 | 51.87566 | 4.95903 | 4901 ft | 279 kts | 244° |
| 2026-05-05 21:00 | 51.86662 | 4.93106 | 4898 ft | 281 kts | 244° |
| 2026-05-05 21:01 | 51.85752 | 4.90312 | 4909 ft | 282 kts | 243° |
| 2026-05-05 21:01 | 51.84839 | 4.87524 | 4900 ft | 279 kts | 243° |
| 2026-05-05 21:01 | 51.83933 | 4.84754 | 4893 ft | 277 kts | 243° |
| 2026-05-05 21:01 | 51.83032 | 4.81983 | 4901 ft | 280 kts | 246° |
| 2026-05-05 21:02 | 51.82586 | 4.80029 | 4896 ft | 279 kts | 258° |
| 2026-05-05 21:02 | 51.82485 | 4.75905 | 4907 ft | 274 kts | 283° |
| 2026-05-05 21:02 | 51.83079 | 4.73028 | 4907 ft | 268 kts | 302° |
| 2026-05-05 21:02 | 51.84044 | 4.70452 | 4908 ft | 267 kts | 306° |
| 2026-05-05 21:03 | 51.85023 | 4.67901 | 4913 ft | 267 kts | 305° |
| 2026-05-05 21:03 | 51.86000 | 4.65337 | 4913 ft | 268 kts | 304° |
| 2026-05-05 21:03 | 51.86976 | 4.62768 | 4917 ft | 268 kts | 304° |
| 2026-05-05 21:03 | 51.87950 | 4.60202 | 4919 ft | 269 kts | 303° |
| 2026-05-05 21:04 | 51.88599 | 4.57365 | 4919 ft | 273 kts | 281° |
| 2026-05-05 21:04 | 51.88532 | 4.54280 | 4917 ft | 278 kts | 258° |
| 2026-05-05 21:04 | 51.87736 | 4.51427 | 4919 ft | 281 kts | 235° |
| 2026-05-05 21:04 | 51.86515 | 4.48941 | 4917 ft | 282 kts | 232° |
| 2026-05-05 21:05 | 51.85283 | 4.46486 | 4920 ft | 281 kts | 232° |
| 2026-05-05 21:05 | 51.84048 | 4.44033 | 4921 ft | 282 kts | 232° |
| 2026-05-05 21:05 | 51.82806 | 4.41573 | 4912 ft | 282 kts | 232° |
| 2026-05-05 21:05 | 51.81561 | 4.39103 | 4825 ft | 283 kts | 231° |
| 2026-05-05 21:06 | 51.80743 | 4.37481 | 4561 ft | 284 kts | 232° |
| 2026-05-05 21:06 | 51.79062 | 4.34141 | 4096 ft | 282 kts | 231° |
| 2026-05-05 21:06 | 51.78244 | 4.32516 | 3868 ft | 282 kts | 231° |
| 2026-05-05 21:06 | 51.77025 | 4.30085 | 3712 ft | 273 kts | 233° |
| 2026-05-05 21:07 | 51.76256 | 4.27386 | 3579 ft | 261 kts | 264° |
| 2026-05-05 21:07 | 51.76610 | 4.23751 | 3351 ft | 240 kts | 303° |
| 2026-05-05 21:07 | 51.77688 | 4.21791 | 3036 ft | 231 kts | 330° |
| 2026-05-05 21:07 | 51.79105 | 4.20652 | 2774 ft | 225 kts | 342° |
| 2026-05-05 21:08 | 51.80074 | 4.20172 | 2673 ft | 218 kts | 354° |
| 2026-05-05 21:08 | 51.81569 | 4.20105 | 2580 ft | 214 kts | 10° |
| 2026-05-05 21:08 | 51.83050 | 4.20393 | 2500 ft | 215 kts | 9° |
| 2026-05-05 21:08 | 51.84510 | 4.20666 | 2416 ft | 205 kts | 9° |
| 2026-05-05 21:09 | 51.85864 | 4.21115 | 2343 ft | 193 kts | 26° |
| 2026-05-05 21:09 | 51.86916 | 4.22306 | 2272 ft | 181 kts | 48° |
| 2026-05-05 21:09 | 51.87633 | 4.23957 | 2212 ft | 178 kts | 56° |
| 2026-05-05 21:09 | 51.88305 | 4.25624 | 2163 ft | 171 kts | 56° |
| 2026-05-05 21:10 | 51.88931 | 4.27170 | 2088 ft | 158 kts | 56° |
| 2026-05-05 21:10 | 51.89504 | 4.28589 | 2008 ft | 143 kts | 55° |
| 2026-05-05 21:10 | 51.90031 | 4.29898 | 1913 ft | 136 kts | 55° |
| 2026-05-05 21:10 | 51.90536 | 4.31156 | 1732 ft | 132 kts | 55° |
| 2026-05-05 21:11 | 51.91036 | 4.32401 | 1539 ft | 132 kts | 54° |
| 2026-05-05 21:11 | 51.91531 | 4.33639 | 1357 ft | 131 kts | 54° |
| 2026-05-05 21:11 | 51.92008 | 4.34902 | 1135 ft | 131 kts | 56° |
| 2026-05-05 21:11 | 51.92475 | 4.36162 | 951 ft | 131 kts | 54° |
| 2026-05-05 21:12 | 51.92977 | 4.37382 | 808 ft | 130 kts | 53° |
| 2026-05-05 21:12 | 51.93476 | 4.38615 | 606 ft | 130 kts | 54° |
| 2026-05-05 21:12 | 51.93969 | 4.39830 | 482 ft | 131 kts | 51° |
| 2026-05-05 21:12 | 51.94495 | 4.41031 | 303 ft | 132 kts | 55° |
| 2026-05-05 21:13 | 51.94978 | 4.42292 | 165 ft | 133 kts | 52° |
| 2026-05-05 21:13 | 51.95502 | 4.43494 | 2 ft | 129 kts | 64° |
| 2026-05-05 21:13 | 51.95907 | 4.44531 | 0 ft | 91 kts | 58° |
| 2026-05-05 21:13 | 51.96155 | 4.45202 | 2 ft | 25 kts | 59° |
| 2026-05-05 21:14 | 51.96088 | 4.45392 | 1 ft | 22 kts | 159° |
| 2026-05-05 21:14 | 51.95983 | 4.45250 | 1 ft | 22 kts | 237° |
| 2026-05-05 21:14 | 51.95893 | 4.45028 | 1 ft | 24 kts | 236° |
| 2026-05-05 21:14 | 51.95801 | 4.44792 | 1 ft | 26 kts | 237° |
| 2026-05-05 21:15 | 51.95697 | 4.44534 | 1 ft | 28 kts | 237° |
| 2026-05-05 21:15 | 51.95600 | 4.44289 | 1 ft | 26 kts | 237° |
| 2026-05-05 21:15 | 51.95498 | 4.44038 | 1 ft | 26 kts | 238° |
| 2026-05-05 21:15 | 51.95396 | 4.43776 | 1 ft | 29 kts | 236° |
| 2026-05-05 21:16 | 51.95307 | 4.43556 | 1 ft | 12 kts | 237° |
| 2026-05-05 21:16 | 51.95252 | 4.43449 | 1 ft | 12 kts | 201° |
| 2026-05-05 21:16 | 51.95195 | 4.43486 | 1 ft | 7 kts | 148° |
| 2026-05-05 21:16 | 51.95155 | 4.43470 | 1 ft | 7 kts | 246° |
| 2026-05-05 21:17 | 51.95175 | 4.43420 | 1 ft | 1 kts | 325° |
| 2026-05-05 21:17 | 51.95190 | 4.43405 | 1 ft | 2 kts | 327° |
| 2026-05-05 21:17 | 51.95192 | 4.43403 | 1 ft | 0 kts | 327° |